Time;durP1;ratioP1;P1;durP2;ratioP2;P2;SDS_P1;SDS_P2;PMS_P1;PMS_P2;Temp;Humidity;BMP_temperature;BMP_pressure;BME280_temperature;BME280_humidity;BME280_pressure;Samples;Min_cycle;Max_cycle;Signal;HPM_P1;HPM_P2
2022/03/20 00:01:07;;;;;;;7.13;2.90;;;;;;;3.51;68.12;103202.91;4935939;29;20055;-83
2022/03/20 00:03:32;;;;;;;7.87;3.30;;;;;;;3.47;68.59;103203.19;4936324;29;20051;-83
2022/03/20 00:05:58;;;;;;;7.33;2.87;;;;;;;3.42;68.41;103200.19;4934842;29;20032;-82
2022/03/20 00:08:24;;;;;;;7.55;3.20;;;;;;;3.42;68.43;103188.75;4935853;29;20078;-83
2022/03/20 00:10:52;;;;;;;7.30;2.80;;;;;;;3.31;68.70;103197.75;4935958;29;20043;-83
2022/03/20 00:13:23;;;;;;;7.43;3.47;;;;;;;3.22;69.32;103190.72;4936017;29;20028;-83
2022/03/20 00:15:52;;;;;;;11.38;3.63;;;;;;;3.19;69.48;103194.50;4935883;29;20391;-83
2022/03/20 00:18:20;;;;;;;10.07;3.30;;;;;;;3.19;69.98;103189.22;4935029;29;20530;-83
2022/03/20 00:40:29;;;;;;;10.35;4.55;;;;;;;2.99;69.80;103146.94;4937317;29;20415;-90
2022/03/20 00:43:09;;;;;;;10.50;4.32;;;;;;;2.82;70.56;103124.75;4900362;29;20452;-89
2022/03/20 00:48:56;;;;;;;9.55;5.03;;;;;;;2.67;71.45;103103.22;4917884;29;20615;-90
2022/03/20 00:54:47;;;;;;;10.50;4.75;;;;;;;2.71;71.28;103125.78;5075589;23;20052;-89
2022/03/20 01:42:39;;;;;;;11.73;6.25;;;;;;;1.96;75.13;103042.03;6040020;23;20022;-90
2022/03/20 01:45:31;;;;;;;11.93;7.00;;;;;;;2.16;73.86;103052.53;4932480;29;20047;-90
2022/03/20 01:50:54;;;;;;;18.60;8.55;;;;;;;1.99;75.17;103024.22;4893933;29;20046;-89
2022/03/20 01:56:55;;;;;;;16.85;9.00;;;;;;;2.03;74.57;103023.78;4876007;29;20052;-90
2022/03/20 02:13:48;;;;;;;20.98;11.55;;;;;;;2.04;73.41;103017.50;5843196;23;20043;-90
2022/03/20 02:28:36;;;;;;;22.83;11.20;;;;;;;1.95;72.29;102968.97;5931867;23;20032;-89
2022/03/20 02:31:02;;;;;;;26.85;12.45;;;;;;;1.96;73.19;102973.28;4955738;23;20051;-89
2022/03/20 02:36:49;;;;;;;23.57;11.67;;;;;;;1.83;72.34;102959.56;4960305;29;20278;-88
2022/03/20 02:43:12;;;;;;;27.48;13.18;;;;;;;1.78;72.81;102952.06;4934651;29;20110;-88
2022/03/20 02:45:43;;;;;;;25.25;12.02;;;;;;;1.70;73.58;102949.34;4933400;29;20027;-90
2022/03/20 02:48:15;;;;;;;29.25;13.07;;;;;;;1.69;73.27;102960.03;4933254;29;20034;-89
2022/03/20 03:29:19;;;;;;;27.08;13.43;;;;;;;1.70;72.49;102916.78;4937955;29;20042;-90
2022/03/20 03:35:58;;;;;;;27.23;13.03;;;;;;;1.44;72.57;102885.75;4937085;29;20279;-90
2022/03/20 03:39:09;;;;;;;26.13;13.38;;;;;;;1.61;73.64;102906.13;4929442;29;20448;-90
2022/03/20 03:42:15;;;;;;;32.70;13.93;;;;;;;1.56;73.42;102904.88;4940607;29;20043;-90
2022/03/20 03:45:30;;;;;;;30.33;14.55;;;;;;;1.48;73.73;102895.03;4956010;29;20035;-91
2022/03/20 03:48:21;;;;;;;31.40;14.88;;;;;;;1.44;73.54;102888.41;4956166;29;20036;-89
2022/03/20 03:51:02;;;;;;;31.38;14.02;;;;;;;1.31;73.50;102847.28;4956413;29;20087;-90
2022/03/20 03:57:41;;;;;;;28.52;13.10;;;;;;;1.31;73.49;102867.59;4926815;29;20067;-89
2022/03/20 04:13:41;;;;;;;31.43;15.47;;;;;;;0.80;75.76;102843.28;6009097;23;20383;-88
2022/03/20 04:16:07;;;;;;;31.75;15.63;;;;;;;0.83;75.77;102853.56;4921271;29;20070;-89
2022/03/20 04:19:32;;;;;;;31.33;16.13;;;;;;;0.84;75.86;102860.53;4895213;29;20516;-90
2022/03/20 04:21:59;;;;;;;34.90;15.52;;;;;;;0.79;76.19;102842.47;4898900;29;20627;-89
2022/03/20 04:24:51;;;;;;;34.70;16.40;;;;;;;0.80;76.16;102840.66;4899037;29;20450;-89
2022/03/20 04:28:00;;;;;;;34.85;15.52;;;;;;;0.81;75.98;102837.03;4899431;29;20028;-88
2022/03/20 04:31:15;;;;;;;29.92;13.82;;;;;;;0.83;75.60;102828.00;4899737;29;20040;-88
2022/03/20 04:37:16;;;;;;;31.85;15.35;;;;;;;0.78;75.75;102814.41;4988792;23;20054;-89
2022/03/20 04:44:51;;;;;;;32.90;15.37;;;;;;;0.64;77.04;102807.78;4916079;29;20343;-90
2022/03/20 06:20:06;;;;;;;29.92;13.90;;;;;;;0.89;71.88;102732.41;4423703;23;20130;-82
2022/03/20 06:22:32;;;;;;;27.35;13.32;;;;;;;0.98;71.31;102732.50;4933567;29;20027;-82
2022/03/20 06:24:57;;;;;;;26.63;13.45;;;;;;;1.02;70.23;102728.56;4933656;29;20448;-82
2022/03/20 06:27:23;;;;;;;29.40;13.43;;;;;;;1.15;70.30;102734.38;4932917;29;20027;-82
2022/03/20 06:29:48;;;;;;;27.70;13.80;;;;;;;1.20;70.61;102731.28;4933608;29;20062;-83
2022/03/20 06:32:14;;;;;;;31.27;13.40;;;;;;;1.33;69.58;102733.56;4933208;29;20074;-82
2022/03/20 06:34:39;;;;;;;31.83;14.32;;;;;;;1.43;68.75;102741.41;4933496;29;20565;-83
2022/03/20 06:37:05;;;;;;;25.57;12.70;;;;;;;1.56;68.10;102726.03;4933227;29;20027;-82
2022/03/20 06:39:30;;;;;;;29.03;14.00;;;;;;;1.66;67.83;102728.59;4933156;29;20023;-83
2022/03/20 06:41:56;;;;;;;30.03;13.37;;;;;;;1.83;67.34;102726.09;4933791;29;20319;-82
2022/03/20 06:44:21;;;;;;;24.13;12.20;;;;;;;1.92;67.21;102726.00;4916068;29;20481;-82
2022/03/20 06:46:47;;;;;;;27.02;13.10;;;;;;;2.06;67.93;102718.50;4915711;29;20035;-83
2022/03/20 06:49:12;;;;;;;26.33;12.93;;;;;;;2.18;66.59;102716.44;4915702;29;20514;-83
2022/03/20 06:51:37;;;;;;;27.17;12.97;;;;;;;2.39;65.06;102705.47;4933198;29;20036;-83
2022/03/20 06:54:03;;;;;;;24.13;10.77;;;;;;;2.48;65.14;102707.19;4914010;29;20020;-83
2022/03/20 06:56:29;;;;;;;28.52;13.27;;;;;;;2.64;65.22;102708.25;4913871;29;20024;-83
2022/03/20 06:58:56;;;;;;;28.43;13.20;;;;;;;2.71;63.82;102704.81;4914688;29;20111;-83
2022/03/20 07:01:21;;;;;;;25.90;13.98;;;;;;;2.76;62.97;102704.34;4897251;29;20032;-83
2022/03/20 07:03:46;;;;;;;29.93;12.97;;;;;;;2.85;62.79;102699.91;4914446;29;20036;-83
2022/03/20 07:06:12;;;;;;;27.83;13.40;;;;;;;2.90;62.34;102704.72;4915714;29;20280;-83
2022/03/20 07:08:37;;;;;;;31.03;13.10;;;;;;;2.99;62.70;102698.47;4915547;29;20060;-83
2022/03/20 07:11:03;;;;;;;27.80;12.10;;;;;;;3.07;62.16;102690.56;4920655;29;20028;-82
2022/03/20 07:16:14;;;;;;;20.73;10.97;;;;;;;3.37;61.55;102692.78;4913729;29;20043;-83
2022/03/20 07:18:40;;;;;;;25.23;12.25;;;;;;;3.46;60.99;102683.81;4913988;29;20082;-83
2022/03/20 07:21:06;;;;;;;28.52;12.77;;;;;;;3.52;60.14;102685.81;4913606;29;20036;-83
2022/03/20 07:23:32;;;;;;;26.58;12.63;;;;;;;3.59;59.20;102670.09;4914541;29;20024;-83
2022/03/20 07:31:25;;;;;;;25.38;11.43;;;;;;;3.71;57.08;102650.19;4913774;29;20092;-82
2022/03/20 07:33:51;;;;;;;24.57;12.03;;;;;;;3.75;57.48;102648.84;4913781;29;20028;-83
2022/03/20 07:36:18;;;;;;;30.63;13.20;;;;;;;3.78;57.62;102651.19;4896229;29;20600;-83
2022/03/20 07:38:44;;;;;;;20.73;10.30;;;;;;;3.85;58.21;102643.38;4913918;29;20028;-83
2022/03/20 07:41:09;;;;;;;26.13;12.70;;;;;;;3.81;56.30;102657.16;4914278;29;20361;-83
2022/03/20 07:43:34;;;;;;;27.57;11.77;;;;;;;3.79;56.14;102659.94;4914312;29;20105;-83
2022/03/20 07:46:00;;;;;;;24.03;11.53;;;;;;;3.75;57.08;102656.81;4914067;29;20028;-83
2022/03/20 07:48:25;;;;;;;25.95;12.27;;;;;;;3.72;56.41;102670.41;4914543;29;20397;-83
2022/03/20 07:50:51;;;;;;;21.50;11.90;;;;;;;3.73;55.07;102665.94;4914458;29;20043;-83
2022/03/20 07:53:17;;;;;;;22.50;11.47;;;;;;;3.69;55.05;102646.88;4914053;29;20032;-83
2022/03/20 07:55:43;;;;;;;24.48;12.05;;;;;;;3.74;55.81;102652.50;4931719;29;20468;-83
2022/03/20 07:58:09;;;;;;;24.67;11.32;;;;;;;3.75;56.60;102656.81;4938802;29;20542;-84
2022/03/20 08:00:34;;;;;;;24.90;12.02;;;;;;;3.75;55.90;102648.84;4932755;29;20024;-82
2022/03/20 08:03:00;;;;;;;25.40;12.53;;;;;;;3.74;55.47;102654.34;4932617;29;20646;-83
2022/03/20 08:05:27;;;;;;;21.50;11.07;;;;;;;3.72;54.63;102654.50;4932514;29;20031;-83
2022/03/20 08:07:52;;;;;;;24.02;11.32;;;;;;;3.66;56.74;102649.84;4931938;29;20038;-83
2022/03/20 08:10:17;;;;;;;23.47;12.07;;;;;;;3.70;55.42;102645.06;4930828;29;20083;-83
2022/03/20 08:12:43;;;;;;;22.25;10.93;;;;;;;3.71;55.13;102641.41;4936917;29;20035;-82
2022/03/20 08:15:09;;;;;;;28.73;11.57;;;;;;;3.77;55.21;102640.72;4936207;29;20035;-82
2022/03/20 08:17:48;;;;;;;26.17;12.10;;;;;;;3.79;56.14;102644.03;4936595;29;20148;-82
2022/03/20 08:20:14;;;;;;;25.33;11.98;;;;;;;3.78;55.20;102639.72;4943455;29;20027;-82
2022/03/20 08:22:39;;;;;;;23.37;11.60;;;;;;;3.81;55.87;102639.41;4936466;29;20428;-83
2022/03/20 08:25:06;;;;;;;24.15;12.07;;;;;;;3.81;54.95;102634.09;4943997;29;20031;-84
2022/03/20 08:27:41;;;;;;;24.55;11.82;;;;;;;3.82;56.12;102626.97;4936079;29;20027;-83
2022/03/20 08:30:11;;;;;;;29.67;12.85;;;;;;;3.79;55.15;102621.03;4937942;29;20043;-83
2022/03/20 08:32:37;;;;;;;27.10;12.45;;;;;;;3.83;55.90;102615.38;4935762;29;20020;-83
2022/03/20 08:35:02;;;;;;;27.37;12.57;;;;;;;3.88;55.38;102616.53;4935868;29;20031;-83
2022/03/20 08:37:27;;;;;;;23.50;12.17;;;;;;;3.96;55.10;102615.69;4935157;29;20031;-83
2022/03/20 08:39:52;;;;;;;30.10;13.73;;;;;;;4.01;55.54;102612.50;4935594;29;20026;-82
2022/03/20 08:42:18;;;;;;;26.52;12.27;;;;;;;4.06;54.94;102604.88;4935384;29;20035;-83
2022/03/20 08:44:44;;;;;;;26.00;13.10;;;;;;;4.07;55.55;102606.53;4935918;29;20023;-83
2022/03/20 08:47:09;;;;;;;24.40;12.70;;;;;;;4.06;55.00;102621.59;4917546;29;20042;-83
2022/03/20 08:49:34;;;;;;;24.67;11.57;;;;;;;4.11;54.91;102612.31;4935577;29;20785;-84
2022/03/20 08:52:00;;;;;;;23.10;11.57;;;;;;;4.13;54.28;102623.59;4935340;29;20036;-83
2022/03/20 08:54:25;;;;;;;27.77;13.00;;;;;;;4.10;55.03;102616.81;4935027;29;20032;-83
2022/03/20 08:56:50;;;;;;;32.03;12.77;;;;;;;4.04;54.15;102620.13;4934798;29;20035;-83
2022/03/20 08:59:16;;;;;;;24.77;12.80;;;;;;;4.02;54.52;102622.94;4934928;29;20031;-83
2022/03/20 09:01:41;;;;;;;24.20;12.70;;;;;;;3.98;54.71;102631.41;4918522;29;20047;-82
2022/03/20 09:04:07;;;;;;;26.23;13.33;;;;;;;3.97;54.34;102616.50;4934856;29;20036;-82
2022/03/20 09:06:32;;;;;;;24.13;12.53;;;;;;;4.00;55.76;102632.91;4934675;29;20672;-83
2022/03/20 09:08:57;;;;;;;27.37;13.53;;;;;;;4.07;54.82;102622.44;4918100;29;20372;-83
2022/03/20 09:11:23;;;;;;;24.70;12.33;;;;;;;4.09;54.78;102623.94;4934837;29;20074;-83
2022/03/20 09:13:48;;;;;;;27.55;13.52;;;;;;;4.19;57.54;102612.31;4935017;29;20028;-83
2022/03/20 09:19:04;;;;;;;26.23;13.15;;;;;;;4.61;54.94;102597.03;4944304;29;20112;-83
2022/03/20 09:21:34;;;;;;;25.20;13.00;;;;;;;4.99;53.70;102599.78;4949577;29;20110;-83
2022/03/20 09:24:00;;;;;;;25.58;13.15;;;;;;;5.45;53.89;102593.63;4950539;29;20035;-82
2022/03/20 09:26:26;;;;;;;23.27;12.13;;;;;;;5.97;51.75;102593.78;4938110;29;20028;-83
2022/03/20 09:28:51;;;;;;;27.60;12.77;;;;;;;6.38;49.81;102580.00;4935295;29;20039;-83
2022/03/20 09:31:17;;;;;;;27.20;12.70;;;;;;;6.53;48.39;102576.47;4941991;29;20110;-83
2022/03/20 09:33:43;;;;;;;21.17;11.93;;;;;;;6.47;48.95;102570.88;4935478;29;20477;-83
2022/03/20 09:36:08;;;;;;;24.95;13.25;;;;;;;6.31;48.71;102582.56;4934830;29;20136;-83
2022/03/20 09:38:35;;;;;;;25.47;13.40;;;;;;;6.11;49.29;102571.69;4934910;29;20057;-84
2022/03/20 09:41:07;;;;;;;27.17;13.48;;;;;;;6.02;49.49;102570.13;4935079;29;20055;-83
2022/03/20 09:43:34;;;;;;;35.03;14.35;;;;;;;6.13;49.65;102548.38;4934910;29;20114;-83
2022/03/20 09:46:00;;;;;;;27.63;14.00;;;;;;;6.49;49.23;102555.53;4934199;29;20047;-84
2022/03/20 09:48:32;;;;;;;27.42;13.73;;;;;;;6.69;48.32;102556.75;4933861;29;20573;-84
2022/03/20 09:51:02;;;;;;;30.57;14.43;;;;;;;6.71;48.83;102555.56;4934467;29;20535;-84
2022/03/20 09:53:28;;;;;;;28.73;14.27;;;;;;;6.73;48.88;102556.22;4933909;29;20283;-84
2022/03/20 09:55:55;;;;;;;23.92;13.65;;;;;;;6.82;48.14;102562.25;4933991;29;20058;-84
2022/03/20 09:58:24;;;;;;;26.55;13.23;;;;;;;6.95;48.41;102559.69;4933691;29;20094;-84
2022/03/20 10:00:49;;;;;;;30.27;14.60;;;;;;;7.13;48.80;102558.44;4934853;29;20032;-84
2022/03/20 10:03:20;;;;;;;28.20;14.37;;;;;;;7.18;47.29;102555.19;4934047;29;20035;-84
2022/03/20 10:06:05;;;;;;;29.52;15.82;;;;;;;7.11;49.13;102571.13;4934059;29;20055;-84
2022/03/20 10:08:30;;;;;;;31.20;16.42;;;;;;;6.86;47.90;102547.50;4933950;29;20036;-84
2022/03/20 10:11:12;;;;;;;34.83;16.90;;;;;;;6.68;48.70;102550.63;4914370;29;20059;-83
2022/03/20 10:13:38;;;;;;;31.02;16.52;;;;;;;6.54;48.78;102557.63;4933906;29;20059;-84
2022/03/20 10:16:17;;;;;;;34.83;16.53;;;;;;;6.50;49.13;102570.50;4933441;29;20070;-84
2022/03/20 10:18:42;;;;;;;36.63;16.98;;;;;;;6.38;49.77;102566.69;4933967;29;20032;-84
2022/03/20 10:21:09;;;;;;;36.73;18.63;;;;;;;6.36;57.46;102574.84;4933419;29;20114;-84
2022/03/20 10:23:39;;;;;;;39.67;22.83;;;;;;;5.61;63.94;102593.47;4933727;29;20058;-84
2022/03/20 10:26:10;;;;;;;38.50;19.45;;;;;;;5.04;69.78;102597.41;4933203;29;20511;-83
2022/03/20 10:28:43;;;;;;;40.58;22.77;;;;;;;4.72;70.45;102582.53;4937160;29;20032;-83
2022/03/20 10:31:18;;;;;;;43.95;21.58;;;;;;;4.44;71.85;102575.88;4936693;29;20391;-83
2022/03/20 10:33:46;;;;;;;44.38;22.98;;;;;;;4.40;73.52;102580.69;4934205;29;20149;-84
2022/03/20 10:36:13;;;;;;;41.42;22.17;;;;;;;4.61;71.25;102576.59;4934353;29;20075;-84
2022/03/20 10:38:39;;;;;;;41.50;23.00;;;;;;;4.59;71.92;102580.44;4933961;29;20074;-84
2022/03/20 10:41:26;;;;;;;40.47;22.67;;;;;;;4.73;71.14;102585.00;4940806;29;20275;-84
2022/03/20 10:43:54;;;;;;;42.88;18.83;;;;;;;4.97;72.06;102584.00;4935314;29;20391;-84
2022/03/20 10:46:24;;;;;;;34.97;20.02;;;;;;;5.29;71.46;102583.94;4915695;29;20024;-84
2022/03/20 10:48:55;;;;;;;36.35;19.42;;;;;;;5.55;71.23;102578.22;4933280;29;20028;-85
2022/03/20 10:51:38;;;;;;;41.10;22.83;;;;;;;5.81;70.57;102587.63;4933563;29;20031;-83
2022/03/20 10:54:15;;;;;;;34.60;18.02;;;;;;;6.06;70.25;102596.19;4933654;29;20031;-83
2022/03/20 10:56:54;;;;;;;40.92;23.20;;;;;;;6.05;70.27;102589.22;4933774;29;20023;-83
2022/03/20 10:59:20;;;;;;;41.03;23.02;;;;;;;5.98;70.46;102598.09;4933640;29;20035;-84
2022/03/20 11:01:47;;;;;;;34.50;18.13;;;;;;;5.91;70.84;102588.16;4933612;29;20036;-84
2022/03/20 11:04:13;;;;;;;43.87;22.67;;;;;;;5.87;71.52;102596.69;4933348;29;20034;-83
2022/03/20 11:06:43;;;;;;;38.83;19.73;;;;;;;5.93;70.96;102590.66;4933739;29;20280;-84
2022/03/20 11:09:08;;;;;;;41.58;22.58;;;;;;;5.96;72.62;102595.59;4933058;29;20031;-83
2022/03/20 11:11:39;;;;;;;37.15;20.90;;;;;;;6.01;72.63;102595.09;4934431;29;20035;-83
2022/03/20 11:14:05;;;;;;;39.47;22.38;;;;;;;5.88;72.47;102591.19;4934549;29;20038;-83
2022/03/20 11:16:36;;;;;;;38.33;20.90;;;;;;;5.99;72.33;102589.91;4934308;29;20382;-84
2022/03/20 11:19:04;;;;;;;40.20;21.70;;;;;;;6.04;71.44;102587.56;4933748;29;20307;-84
2022/03/20 11:21:30;;;;;;;44.97;23.80;;;;;;;5.97;71.12;102599.09;4933184;29;20484;-83
2022/03/20 11:23:58;;;;;;;38.45;22.80;;;;;;;5.82;71.17;102604.41;4933541;29;20024;-82
2022/03/20 11:26:25;;;;;;;41.08;20.73;;;;;;;5.82;72.05;102588.44;4931059;29;20396;-83
2022/03/20 11:28:55;;;;;;;41.30;22.23;;;;;;;5.86;71.34;102597.72;4932868;29;20027;-84
2022/03/20 11:31:21;;;;;;;43.47;20.85;;;;;;;5.87;72.05;102594.03;4932332;29;20645;-83
2022/03/20 11:33:47;;;;;;;39.70;20.75;;;;;;;5.86;73.35;102590.53;4916887;29;20057;-83
2022/03/20 11:36:13;;;;;;;41.60;22.57;;;;;;;5.88;72.82;102598.34;4933578;29;20028;-84
2022/03/20 11:38:40;;;;;;;41.67;20.37;;;;;;;5.97;73.42;102575.16;4932965;29;20841;-84
2022/03/20 11:41:17;;;;;;;44.05;22.77;;;;;;;6.24;72.98;102570.19;4933285;29;20046;-84
2022/03/20 11:44:14;;;;;;;45.08;23.45;;;;;;;6.78;71.72;102577.78;4933575;29;20031;-84
2022/03/20 11:46:43;;;;;;;42.10;21.40;;;;;;;7.08;71.21;102576.81;4935854;29;20020;-83
2022/03/20 11:49:15;;;;;;;39.85;21.85;;;;;;;7.24;68.76;102581.06;4936946;29;20090;-83
2022/03/20 11:51:54;;;;;;;42.67;22.50;;;;;;;7.29;67.61;102584.00;4942445;29;20083;-83
2022/03/20 11:54:20;;;;;;;42.70;22.83;;;;;;;7.17;66.10;102585.50;4934649;29;20320;-83
2022/03/20 11:56:45;;;;;;;38.90;20.92;;;;;;;7.12;67.30;102570.91;4900989;29;20063;-84
2022/03/20 11:59:48;;;;;;;39.00;21.37;;;;;;;7.27;67.34;102588.69;4917517;29;20498;-83
2022/03/20 12:02:15;;;;;;;35.35;20.25;;;;;;;7.37;67.60;102585.72;4917744;29;20484;-83
2022/03/20 12:05:22;;;;;;;39.53;21.23;;;;;;;7.47;67.88;102577.38;4917737;29;20446;-83
2022/03/20 12:07:56;;;;;;;38.17;20.20;;;;;;;7.54;64.80;102578.22;4887134;29;20429;-83
2022/03/20 12:10:40;;;;;;;39.20;19.90;;;;;;;7.44;63.92;102586.56;4917344;29;20444;-84
2022/03/20 12:13:31;;;;;;;34.47;19.92;;;;;;;7.47;64.69;102580.03;4935122;29;20023;-84
2022/03/20 12:15:56;;;;;;;38.70;20.25;;;;;;;7.53;64.53;102576.56;4936634;29;20051;-84
2022/03/20 12:18:21;;;;;;;40.03;20.37;;;;;;;7.50;62.87;102580.47;4936034;29;20432;-85
2022/03/20 12:21:00;;;;;;;38.33;20.27;;;;;;;7.43;64.47;102569.75;4936564;29;20031;-84
2022/03/20 12:23:37;;;;;;;39.40;20.13;;;;;;;7.42;64.33;102560.09;4935972;29;20027;-84
2022/03/20 12:26:26;;;;;;;36.40;19.67;;;;;;;7.48;63.84;102555.00;4935814;29;20035;-84
2022/03/20 12:28:51;;;;;;;40.35;20.55;;;;;;;7.43;63.01;102559.06;4936220;29;20163;-84
2022/03/20 12:31:26;;;;;;;40.00;22.63;;;;;;;7.39;60.75;102563.16;4936009;29;20127;-85
2022/03/20 12:34:18;;;;;;;42.15;20.58;;;;;;;7.36;62.17;102552.84;4936299;29;20042;-84
2022/03/20 12:36:43;;;;;;;37.03;17.83;;;;;;;7.53;59.84;102533.88;4936085;29;20435;-84
2022/03/20 12:39:10;;;;;;;38.33;19.77;;;;;;;7.61;61.36;102536.41;4935758;29;20028;-83
2022/03/20 12:41:36;;;;;;;38.45;20.40;;;;;;;7.65;57.88;102553.69;4935661;29;20044;-83
2022/03/20 12:44:07;;;;;;;34.67;19.73;;;;;;;7.58;57.97;102544.81;4935647;29;20494;-83
2022/03/20 12:46:37;;;;;;;39.47;19.85;;;;;;;7.53;58.42;102552.56;4935495;29;20136;-84
2022/03/20 12:49:03;;;;;;;36.08;18.73;;;;;;;7.65;57.55;102547.50;4935367;29;20144;-83
2022/03/20 12:51:34;;;;;;;34.63;20.27;;;;;;;7.91;57.35;102554.84;4935216;29;20027;-83
2022/03/20 12:54:15;;;;;;;34.22;17.95;;;;;;;8.06;56.18;102544.06;4935395;29;20024;-84
2022/03/20 12:56:55;;;;;;;35.38;18.60;;;;;;;8.26;57.48;102552.13;4934809;29;20047;-84
2022/03/20 12:59:23;;;;;;;36.73;18.43;;;;;;;8.40;54.74;102557.53;4934976;29;20026;-84
2022/03/20 13:01:49;;;;;;;34.30;19.40;;;;;;;8.45;55.30;102560.41;4935754;29;20275;-84
2022/03/20 13:04:16;;;;;;;38.80;19.23;;;;;;;8.53;55.89;102552.25;4936158;29;20024;-84
2022/03/20 13:06:42;;;;;;;36.63;20.38;;;;;;;8.60;55.35;102563.78;4934740;29;20023;-84
2022/03/20 13:09:15;;;;;;;31.67;17.93;;;;;;;8.64;54.19;102554.34;4934418;29;20447;-84
2022/03/20 13:11:56;;;;;;;41.03;19.65;;;;;;;8.59;54.43;102550.63;4935022;29;20056;-84
2022/03/20 13:14:23;;;;;;;36.47;19.48;;;;;;;8.66;53.54;102550.63;4934543;29;20464;-84
2022/03/20 13:16:55;;;;;;;38.58;20.35;;;;;;;8.64;53.44;102551.66;4934433;29;20378;-84
2022/03/20 13:19:35;;;;;;;39.28;20.52;;;;;;;8.66;52.95;102561.31;4934267;29;20110;-84
2022/03/20 13:22:09;;;;;;;33.40;19.70;;;;;;;8.76;54.41;102553.75;4935614;29;20470;-84
2022/03/20 13:24:37;;;;;;;40.60;20.48;;;;;;;9.12;54.00;102555.22;4934644;29;20047;-85
2022/03/20 13:27:06;;;;;;;31.05;17.80;;;;;;;9.47;51.73;102551.50;4934337;29;20028;-83
2022/03/20 13:29:33;;;;;;;32.80;18.47;;;;;;;9.63;51.47;102556.41;4934533;29;20042;-83
2022/03/20 13:32:03;;;;;;;36.33;20.10;;;;;;;9.68;50.13;102547.75;4934804;29;20282;-84
2022/03/20 13:34:31;;;;;;;34.58;19.25;;;;;;;9.87;49.20;102555.94;4934846;29;20042;-84
2022/03/20 13:37:03;;;;;;;35.28;20.02;;;;;;;10.05;49.96;102548.03;4934298;29;20034;-84
2022/03/20 13:39:29;;;;;;;34.85;19.33;;;;;;;10.25;50.00;102547.13;4934551;29;20036;-84
2022/03/20 13:41:54;;;;;;;35.55;21.00;;;;;;;10.39;49.01;102556.81;4934727;29;20035;-84
2022/03/20 13:44:19;;;;;;;39.27;21.27;;;;;;;10.32;48.46;102555.16;4933935;29;20039;-84
2022/03/20 13:46:45;;;;;;;38.23;21.97;;;;;;;10.36;49.00;102545.63;4933973;29;20051;-84
2022/03/20 13:49:11;;;;;;;33.70;19.15;;;;;;;10.32;47.52;102553.28;4934739;29;20028;-84
2022/03/20 13:51:37;;;;;;;38.20;19.20;;;;;;;10.65;48.54;102556.88;4947937;29;20028;-84
2022/03/20 13:54:13;;;;;;;34.70;19.37;;;;;;;10.83;48.34;102542.72;4938388;29;20051;-85
2022/03/20 13:56:39;;;;;;;33.37;19.60;;;;;;;10.75;46.95;102544.63;4934483;29;20638;-84
2022/03/20 13:59:11;;;;;;;32.13;19.95;;;;;;;10.59;46.58;102539.78;4933870;29;20028;-84
2022/03/20 14:01:51;;;;;;;34.03;18.98;;;;;;;10.81;47.16;102534.91;4934370;29;20042;-85
2022/03/20 14:04:21;;;;;;;31.70;18.45;;;;;;;10.80;46.02;102532.41;4934000;29;20086;-83
2022/03/20 14:06:56;;;;;;;35.13;20.45;;;;;;;10.63;46.43;102532.13;4934362;29;20369;-83
2022/03/20 14:09:31;;;;;;;35.08;21.25;;;;;;;10.53;46.98;102536.09;4933679;29;20032;-84
2022/03/20 14:11:57;;;;;;;31.67;20.17;;;;;;;10.68;46.69;102533.13;4932374;29;20399;-83
2022/03/20 14:14:40;;;;;;;33.57;20.67;;;;;;;10.53;47.08;102532.59;4934388;29;20032;-84
2022/03/20 14:17:07;;;;;;;33.70;18.85;;;;;;;10.39;47.31;102546.09;4934686;29;20107;-85
2022/03/20 14:19:44;;;;;;;27.42;17.50;;;;;;;10.33;45.92;102541.53;4934101;29;20040;-85
2022/03/20 14:22:09;;;;;;;32.20;19.10;;;;;;;10.29;46.90;102545.69;4934219;29;20031;-84
2022/03/20 14:24:53;;;;;;;34.10;21.90;;;;;;;10.07;45.89;102540.63;4934186;29;20384;-83
2022/03/20 14:27:29;;;;;;;31.48;17.80;;;;;;;10.02;45.84;102550.31;4915836;29;20028;-84
2022/03/20 14:41:22;;;;;;;31.38;19.25;;;;;;;10.13;46.44;102533.63;4933971;29;20460;-84
2022/03/20 14:44:15;;;;;;;34.70;21.27;;;;;;;9.90;46.41;102544.81;4934462;29;20047;-84
2022/03/20 14:46:47;;;;;;;32.22;18.77;;;;;;;9.83;47.38;102540.31;4934074;29;20131;-83
2022/03/20 14:49:12;;;;;;;35.15;20.63;;;;;;;9.65;46.45;102542.81;4941264;29;20034;-83
2022/03/20 14:51:40;;;;;;;35.63;20.17;;;;;;;9.60;46.76;102543.44;4934878;29;20036;-84
2022/03/20 14:54:06;;;;;;;33.33;20.27;;;;;;;9.59;47.16;102540.97;4931747;29;20119;-84
2022/03/20 14:56:32;;;;;;;35.77;21.97;;;;;;;9.63;47.46;102535.00;4914118;29;20323;-84
2022/03/20 14:58:59;;;;;;;35.25;19.88;;;;;;;9.72;48.45;102537.44;4914591;29;20119;-84
2022/03/20 15:01:25;;;;;;;33.95;19.63;;;;;;;9.72;46.46;102538.25;4914148;29;20024;-85
2022/03/20 15:03:50;;;;;;;32.90;19.60;;;;;;;9.85;47.12;102540.09;4914187;29;20035;-85
2022/03/20 15:06:16;;;;;;;33.17;19.27;;;;;;;9.92;46.75;102532.88;4914008;29;20399;-84
2022/03/20 15:11:26;;;;;;;31.97;20.37;;;;;;;9.79;46.38;102538.25;4913984;29;20165;-84
2022/03/20 15:13:56;;;;;;;29.43;18.73;;;;;;;9.77;46.54;102532.31;4914116;29;20295;-84
2022/03/20 15:16:22;;;;;;;32.38;20.63;;;;;;;9.79;46.43;102533.72;4913299;29;20111;-83
2022/03/20 15:18:50;;;;;;;34.10;19.70;;;;;;;9.78;46.54;102526.72;4913760;29;20826;-84
2022/03/20 15:21:16;;;;;;;31.20;19.42;;;;;;;9.74;46.76;102530.84;4916148;29;20032;-83
2022/03/20 15:23:42;;;;;;;33.92;19.60;;;;;;;9.96;47.35;102527.91;4917887;29;20107;-84
2022/03/20 15:26:07;;;;;;;31.33;18.30;;;;;;;10.31;47.05;102535.56;4919271;29;20060;-84
2022/03/20 15:28:32;;;;;;;34.00;19.87;;;;;;;10.48;45.94;102527.06;4902980;29;20028;-83
2022/03/20 15:30:58;;;;;;;32.97;20.47;;;;;;;10.73;45.88;102521.75;4917560;29;20036;-83
2022/03/20 15:33:24;;;;;;;33.73;19.63;;;;;;;10.85;44.53;102517.34;4917426;29;20287;-83
2022/03/20 15:35:49;;;;;;;34.17;19.10;;;;;;;10.87;45.04;102514.44;4917713;29;20400;-84
2022/03/20 15:38:17;;;;;;;34.38;20.90;;;;;;;10.58;45.53;102512.16;4915455;29;20119;-83
2022/03/20 15:40:43;;;;;;;32.33;18.13;;;;;;;10.44;43.91;102511.41;4917260;29;20111;-83
2022/03/20 15:43:08;;;;;;;29.48;18.27;;;;;;;10.43;44.50;102515.13;4917155;29;20032;-84
2022/03/20 15:45:33;;;;;;;30.07;19.23;;;;;;;10.34;44.77;102511.03;4917285;29;20032;-84
2022/03/20 15:47:59;;;;;;;28.17;18.13;;;;;;;10.15;44.99;102510.94;4917149;29;20047;-83
2022/03/20 15:50:25;;;;;;;32.70;19.13;;;;;;;10.14;46.06;102513.78;4917777;29;20027;-83
2022/03/20 15:52:51;;;;;;;29.42;18.92;;;;;;;10.19;46.10;102515.84;4901103;29;20028;-83
2022/03/20 15:55:16;;;;;;;27.88;18.15;;;;;;;10.28;45.04;102522.59;4916966;29;20028;-83
2022/03/20 15:57:42;;;;;;;33.20;18.77;;;;;;;10.45;45.27;102513.06;4916913;29;20036;-84
2022/03/20 16:00:08;;;;;;;33.50;19.57;;;;;;;10.51;45.08;102514.03;4917274;29;20123;-83
2022/03/20 16:02:33;;;;;;;35.80;19.73;;;;;;;10.41;45.13;102516.38;4917397;29;20032;-84
2022/03/20 16:04:58;;;;;;;32.00;18.03;;;;;;;10.41;45.65;102516.38;4917380;29;20111;-83
2022/03/20 16:07:24;;;;;;;31.63;19.20;;;;;;;10.32;45.32;102521.13;4916958;29;20028;-84
2022/03/20 16:09:50;;;;;;;30.88;18.60;;;;;;;10.26;45.33;102516.63;4900115;29;20024;-84
2022/03/20 16:12:15;;;;;;;31.13;18.87;;;;;;;10.13;45.98;102520.22;4916773;29;20489;-83
2022/03/20 16:14:42;;;;;;;31.43;19.07;;;;;;;10.04;46.11;102529.50;4930757;29;20032;-83
2022/03/20 16:17:08;;;;;;;33.90;19.63;;;;;;;9.97;46.63;102532.22;4935562;29;20395;-83
2022/03/20 16:19:34;;;;;;;31.83;18.45;;;;;;;9.91;46.97;102541.94;4935594;29;20513;-84
2022/03/20 16:21:59;;;;;;;31.70;19.10;;;;;;;9.82;46.66;102544.00;4935950;29;20036;-84
2022/03/20 16:29:52;;;;;;;28.87;19.13;;;;;;;10.06;46.68;102555.03;4936186;29;20181;-84
2022/03/20 16:32:18;;;;;;;31.57;18.70;;;;;;;10.14;46.86;102551.31;4935106;29;20770;-84
2022/03/20 16:34:45;;;;;;;32.53;19.20;;;;;;;10.13;46.21;102555.03;4936109;29;20035;-84